Time;durP1;ratioP1;P1;durP2;ratioP2;P2;SDS_P1;SDS_P2;PMS_P1;PMS_P2;Temp;Humidity;BMP_temperature;BMP_pressure;BME280_temperature;BME280_humidity;BME280_pressure;Samples;Min_cycle;Max_cycle;Signal;HPM_P1;HPM_P2
2021/05/19 00:01:44;;;;;;;13.35;7.03;;;;;;;17.69;57.33;99252.00;5003235;28;20045;-79
2021/05/19 00:04:10;;;;;;;21.42;8.02;;;;;;;17.69;57.21;99260.94;5019791;28;20075;-79
2021/05/19 00:06:36;;;;;;;19.35;7.60;;;;;;;17.69;57.33;99260.94;5036038;28;20056;-77
2021/05/19 00:09:07;;;;;;;16.33;8.15;;;;;;;17.65;57.94;99270.41;5062105;28;20462;-78
2021/05/19 00:11:33;;;;;;;12.82;8.15;;;;;;;17.54;58.21;99267.22;5022967;28;20040;-77
2021/05/19 00:13:59;;;;;;;14.63;8.05;;;;;;;17.51;58.08;99267.56;5072391;28;20067;-78
2021/05/19 00:16:25;;;;;;;15.27;7.47;;;;;;;17.51;58.48;99279.19;5055520;28;20044;-78
2021/05/19 00:18:51;;;;;;;10.45;7.88;;;;;;;17.56;58.11;99286.78;5071846;28;20050;-77
2021/05/19 00:21:16;;;;;;;15.68;7.78;;;;;;;17.59;58.10;99284.59;5072090;28;20048;-78
2021/05/19 00:23:42;;;;;;;24.92;8.60;;;;;;;17.60;58.27;99289.00;5073520;28;20083;-77
2021/05/19 00:26:08;;;;;;;17.38;8.23;;;;;;;17.61;58.19;99295.25;5055280;28;20041;-78
2021/05/19 00:28:34;;;;;;;14.73;8.98;;;;;;;17.46;58.78;99281.56;5055016;28;20514;-78
2021/05/19 00:31:07;;;;;;;15.45;9.23;;;;;;;17.50;58.92;99293.72;5073365;28;20056;-78
2021/05/19 00:33:33;;;;;;;18.77;10.05;;;;;;;17.43;58.79;99277.34;5073068;28;20048;-77
2021/05/19 00:36:11;;;;;;;16.05;9.82;;;;;;;17.38;59.38;99284.28;5073191;28;20036;-79
2021/05/19 00:38:37;;;;;;;17.70;10.02;;;;;;;17.44;58.93;99289.00;5072973;28;20479;-77
2021/05/19 00:41:05;;;;;;;19.88;9.90;;;;;;;17.50;59.25;99293.72;5038525;28;20044;-78
2021/05/19 00:43:31;;;;;;;23.70;9.95;;;;;;;17.46;59.34;99295.09;5055217;28;20384;-78
2021/05/19 00:46:03;;;;;;;16.42;10.02;;;;;;;17.47;59.37;99299.47;5055834;28;20040;-78
2021/05/19 00:48:29;;;;;;;15.73;9.90;;;;;;;17.51;59.39;99303.53;5038851;28;20032;-80
2021/05/19 00:50:55;;;;;;;11.35;8.80;;;;;;;17.49;59.39;99294.75;5072817;28;20453;-79
2021/05/19 00:53:22;;;;;;;19.65;9.80;;;;;;;17.47;59.25;99304.88;5072987;28;20097;-80
2021/05/19 00:55:48;;;;;;;16.75;10.57;;;;;;;17.50;59.47;99307.25;5073007;28;20555;-80
2021/05/19 00:58:15;;;;;;;24.50;11.88;;;;;;;17.57;59.45;99310.97;5055232;28;20082;-78
2021/05/19 01:00:43;;;;;;;20.33;11.27;;;;;;;17.57;59.54;99308.28;5055503;28;20044;-79
2021/05/19 01:03:21;;;;;;;23.70;11.75;;;;;;;17.57;59.45;99312.84;5071686;28;20060;-80
2021/05/19 01:06:00;;;;;;;26.13;11.40;;;;;;;17.54;59.28;99305.91;5071772;28;20040;-78
2021/05/19 01:11:18;;;;;;;27.02;11.02;;;;;;;17.53;59.90;99312.31;5057780;28;20506;-81
2021/05/19 01:13:45;;;;;;;19.85;10.32;;;;;;;17.52;59.90;99317.88;5071768;28;20045;-78
2021/05/19 01:16:11;;;;;;;27.15;11.32;;;;;;;17.60;60.04;99321.44;5054960;28;20139;-79
2021/05/19 01:18:37;;;;;;;21.50;10.95;;;;;;;17.56;60.11;99322.78;5072964;28;20040;-79
2021/05/19 01:21:03;;;;;;;24.27;11.90;;;;;;;17.68;59.78;99328.72;5072558;28;20093;-77
2021/05/19 01:23:32;;;;;;;14.73;10.38;;;;;;;17.68;59.76;99340.38;5054977;28;20044;-78
2021/05/19 01:25:59;;;;;;;24.45;11.48;;;;;;;17.69;59.99;99335.81;5071851;28;20040;-79
2021/05/19 01:28:25;;;;;;;27.45;11.75;;;;;;;17.70;59.67;99342.88;5054972;28;20484;-79
2021/05/19 01:30:51;;;;;;;26.23;11.30;;;;;;;17.81;59.48;99339.88;5071189;28;20054;-78
2021/05/19 01:33:17;;;;;;;24.58;11.35;;;;;;;17.82;59.47;99341.56;5054900;28;20049;-78
2021/05/19 01:35:43;;;;;;;20.13;12.23;;;;;;;17.85;59.23;99340.38;5072621;28;20113;-79
2021/05/19 01:38:10;;;;;;;18.63;10.27;;;;;;;18.00;59.06;99345.97;5071378;28;20086;-79
2021/05/19 01:40:36;;;;;;;17.63;10.45;;;;;;;17.98;59.10;99340.75;5038236;28;20048;-81
2021/05/19 01:43:02;;;;;;;19.02;10.60;;;;;;;18.04;59.12;99348.16;5021925;28;20440;-78
2021/05/19 01:45:51;;;;;;;35.22;10.90;;;;;;;18.15;58.78;99355.91;5072257;28;20045;-80
2021/05/19 01:48:17;;;;;;;23.67;11.30;;;;;;;18.26;58.83;99345.75;5055161;28;20071;-79
2021/05/19 01:50:43;;;;;;;26.60;12.02;;;;;;;18.39;58.49;99349.63;5054897;28;20044;-79
2021/05/19 01:53:09;;;;;;;30.98;11.65;;;;;;;18.59;58.13;99352.78;5054843;28;20090;-80
2021/05/19 01:55:35;;;;;;;35.38;13.07;;;;;;;18.78;57.68;99353.44;5038037;28;20090;-78
2021/05/19 01:58:01;;;;;;;45.35;12.75;;;;;;;18.92;57.35;99358.13;5070950;28;20052;-79
2021/05/19 02:00:30;;;;;;;36.42;12.50;;;;;;;19.12;56.84;99367.50;5071207;28;20040;-79
2021/05/19 02:03:06;;;;;;;37.50;13.98;;;;;;;19.31;56.30;99376.22;5071192;28;20087;-79
2021/05/19 02:05:52;;;;;;;60.95;14.88;;;;;;;19.41;56.00;99377.69;5057201;28;20632;-76
2021/05/19 02:08:18;;;;;;;45.70;13.23;;;;;;;19.55;55.85;99378.75;5070748;28;20096;-81
2021/05/19 02:10:46;;;;;;;62.95;12.88;;;;;;;19.68;55.42;99374.66;5071180;28;20534;-79
2021/05/19 02:13:15;;;;;;;44.65;13.10;;;;;;;19.82;55.10;99379.28;5071100;28;20060;-80
2021/05/19 02:15:41;;;;;;;55.05;12.73;;;;;;;19.89;54.78;99380.22;5055077;28;20079;-79
2021/05/19 02:18:11;;;;;;;37.08;13.07;;;;;;;20.01;54.65;99384.22;5071242;28;20185;-79
2021/05/19 02:20:37;;;;;;;44.67;11.98;;;;;;;20.09;54.30;99378.72;5071258;28;20083;-80
2021/05/19 02:23:03;;;;;;;25.33;11.60;;;;;;;20.23;53.96;99389.78;5054452;28;20516;-81
2021/05/19 02:25:29;;;;;;;29.85;10.25;;;;;;;20.26;53.79;99398.41;5072128;28;20526;-79
2021/05/19 02:27:55;;;;;;;29.17;9.85;;;;;;;20.35;53.54;99401.91;5054362;28;20392;-80
2021/05/19 02:30:27;;;;;;;25.35;10.07;;;;;;;20.45;53.43;99397.03;5070695;28;20504;-80
2021/05/19 02:32:53;;;;;;;23.08;10.68;;;;;;;20.54;53.36;99395.13;5071797;28;20117;-79
2021/05/19 02:35:22;;;;;;;27.20;10.73;;;;;;;20.57;53.11;99401.03;5075834;28;20052;-79
2021/05/19 02:37:57;;;;;;;20.33;9.95;;;;;;;20.61;53.41;99410.50;5059077;28;20519;-79
2021/05/19 02:40:23;;;;;;;19.00;10.52;;;;;;;20.68;53.00;99401.59;5039425;28;20570;-79
2021/05/19 02:42:49;;;;;;;21.00;10.18;;;;;;;20.83;52.97;99416.03;5024629;28;20041;-79
2021/05/19 02:45:22;;;;;;;26.90;10.60;;;;;;;20.90;52.66;99410.69;5043043;28;20404;-79
2021/05/19 02:47:49;;;;;;;28.70;10.93;;;;;;;20.98;52.41;99422.28;5057771;28;20076;-80
2021/05/19 02:50:16;;;;;;;47.20;13.27;;;;;;;20.99;52.46;99432.16;5008158;28;20033;-78
2021/05/19 02:52:42;;;;;;;57.78;14.13;;;;;;;20.74;52.90;99428.03;5041097;28;20450;-80
2021/05/19 02:55:11;;;;;;;61.50;15.88;;;;;;;20.68;53.21;99428.75;5074941;28;20131;-79
2021/05/19 02:57:36;;;;;;;53.13;15.20;;;;;;;20.44;53.73;99427.09;5057314;28;20080;-78
2021/05/19 03:00:05;;;;;;;60.47;16.90;;;;;;;20.34;53.95;99427.34;5073790;28;20510;-78
2021/05/19 03:02:31;;;;;;;44.20;15.25;;;;;;;20.27;54.40;99431.81;5074082;28;20052;-78
2021/05/19 03:04:57;;;;;;;46.10;16.85;;;;;;;20.41;54.07;99428.31;5057160;28;20098;-78
2021/05/19 03:07:26;;;;;;;48.00;15.60;;;;;;;20.64;53.82;99435.59;5022199;28;20076;-80
2021/05/19 03:09:52;;;;;;;56.22;15.65;;;;;;;20.88;53.50;99429.91;5043282;28;20091;-81
2021/05/19 03:12:18;;;;;;;40.22;13.35;;;;;;;21.00;53.24;99427.56;5016211;28;20120;-79
2021/05/19 03:14:44;;;;;;;42.47;13.93;;;;;;;21.18;52.72;99435.34;5048220;28;20062;-78
2021/05/19 03:17:10;;;;;;;37.97;12.25;;;;;;;21.25;52.54;99431.66;5056299;28;20135;-78
2021/05/19 03:19:36;;;;;;;25.48;12.60;;;;;;;21.38;52.36;99430.19;5020917;28;20095;-80
2021/05/19 03:22:03;;;;;;;20.52;11.27;;;;;;;21.49;51.96;99429.69;5021691;28;20496;-78
2021/05/19 03:24:29;;;;;;;23.48;11.55;;;;;;;21.51;52.19;99435.75;5004845;28;20041;-77
2021/05/19 03:26:55;;;;;;;24.88;10.77;;;;;;;21.64;51.86;99440.53;5004199;28;20452;-77
2021/05/19 03:29:22;;;;;;;28.58;10.75;;;;;;;21.73;51.52;99439.38;5003846;28;20400;-77
2021/05/19 03:31:48;;;;;;;27.75;10.90;;;;;;;21.72;51.58;99443.13;5020495;28;20052;-77
2021/05/19 03:34:15;;;;;;;17.83;10.48;;;;;;;21.77;51.53;99443.38;5004371;28;20511;-78
2021/05/19 03:36:42;;;;;;;18.63;10.68;;;;;;;21.86;51.74;99436.81;5020402;28;20045;-79
2021/05/19 03:39:09;;;;;;;22.83;10.80;;;;;;;21.93;51.70;99451.31;4971962;28;20148;-80
2021/05/19 03:41:36;;;;;;;20.33;10.80;;;;;;;21.98;51.37;99450.75;5003763;28;20087;-81
2021/05/19 03:44:02;;;;;;;22.65;10.77;;;;;;;22.05;51.34;99449.78;5003931;28;20057;-76
2021/05/19 03:46:28;;;;;;;22.75;11.00;;;;;;;22.18;51.10;99453.69;5003773;28;20045;-82
2021/05/19 03:48:54;;;;;;;18.63;10.40;;;;;;;22.19;51.17;99460.81;4987592;28;20041;-74
2021/05/19 03:51:24;;;;;;;27.83;11.55;;;;;;;22.21;51.31;99456.00;5036725;28;20049;-81
2021/05/19 03:53:53;;;;;;;15.32;9.80;;;;;;;22.25;51.16;99465.47;5020688;28;20060;-79
2021/05/19 03:56:20;;;;;;;28.98;9.88;;;;;;;22.23;51.15;99453.97;5037694;28;20036;-78
2021/05/19 03:58:46;;;;;;;15.13;10.13;;;;;;;22.36;51.09;99467.69;5037018;28;20551;-78
2021/05/19 04:01:13;;;;;;;18.58;10.23;;;;;;;22.49;50.85;99465.09;5020044;28;20037;-80
2021/05/19 04:03:39;;;;;;;27.05;10.20;;;;;;;22.47;50.54;99450.81;5036716;28;20033;-78
2021/05/19 04:06:05;;;;;;;16.27;9.93;;;;;;;22.63;50.34;99460.56;5003575;28;20080;-76
2021/05/19 04:08:34;;;;;;;24.33;9.60;;;;;;;22.67;49.90;99452.84;5054576;28;20060;-81
2021/05/19 04:11:01;;;;;;;24.33;9.35;;;;;;;22.79;49.34;99460.28;5055704;28;20045;-78
2021/05/19 04:13:27;;;;;;;21.42;9.57;;;;;;;22.98;49.21;99458.75;5073893;28;20456;-77
2021/05/19 04:15:53;;;;;;;17.90;8.90;;;;;;;23.08;48.46;99460.28;5075065;28;20036;-83
2021/05/19 04:18:19;;;;;;;17.70;9.10;;;;;;;23.05;48.53;99458.78;5073285;28;20048;-79
2021/05/19 04:20:45;;;;;;;26.25;9.60;;;;;;;23.11;48.50;99454.44;5056690;28;20399;-78
2021/05/19 04:23:10;;;;;;;20.95;9.38;;;;;;;23.21;47.98;99454.91;5039488;28;20040;-79
2021/05/19 04:25:37;;;;;;;30.92;8.63;;;;;;;23.14;47.73;99460.31;5055974;28;20526;-78
2021/05/19 04:28:03;;;;;;;23.77;8.70;;;;;;;23.17;47.52;99453.59;5022557;28;20040;-80
2021/05/19 04:30:29;;;;;;;15.90;9.10;;;;;;;23.29;47.63;99457.47;5006465;28;20102;-79
2021/05/19 04:32:55;;;;;;;17.65;8.60;;;;;;;23.38;47.33;99469.88;5022859;28;20495;-78
2021/05/19 04:35:21;;;;;;;23.33;8.32;;;;;;;23.50;47.55;99467.41;5042110;28;20107;-79
2021/05/19 04:37:47;;;;;;;17.05;8.70;;;;;;;23.56;47.21;99479.41;5053671;28;20146;-78
2021/05/19 04:40:15;;;;;;;20.15;9.60;;;;;;;23.61;47.10;99487.81;5038169;28;20535;-78
2021/05/19 04:42:41;;;;;;;19.63;8.63;;;;;;;23.64;46.98;99481.94;5022437;28;20048;-79
2021/05/19 04:45:08;;;;;;;18.42;9.85;;;;;;;23.65;46.87;99478.16;5039005;28;20036;-79
2021/05/19 04:47:34;;;;;;;23.13;8.27;;;;;;;23.61;47.01;99465.97;5039075;28;20045;-79
2021/05/19 04:50:00;;;;;;;15.00;9.20;;;;;;;23.87;46.76;99477.03;5038762;28;20049;-78
2021/05/19 04:52:26;;;;;;;19.48;8.65;;;;;;;24.01;46.58;99471.59;5071954;28;20193;-78
2021/05/19 04:54:52;;;;;;;24.40;8.38;;;;;;;24.11;46.36;99472.03;5038713;28;20040;-78
2021/05/19 04:57:18;;;;;;;19.23;8.40;;;;;;;24.20;45.92;99476.25;5038673;28;20098;-79
2021/05/19 04:59:44;;;;;;;16.15;8.65;;;;;;;24.29;45.88;99482.34;5038466;28;20561;-79
2021/05/19 05:02:10;;;;;;;21.02;8.00;;;;;;;24.35;45.80;99476.91;5071753;28;20048;-79
2021/05/19 05:04:36;;;;;;;19.83;8.05;;;;;;;24.30;45.85;99471.25;5071516;28;20045;-79
2021/05/19 05:07:02;;;;;;;17.40;8.18;;;;;;;24.34;45.99;99469.78;5022153;28;20040;-79
2021/05/19 05:09:28;;;;;;;16.98;8.48;;;;;;;24.50;45.77;99470.44;5022204;28;20143;-78
2021/05/19 05:11:55;;;;;;;18.60;7.47;;;;;;;24.60;45.34;99466.25;5038866;28;20052;-79
2021/05/19 05:14:21;;;;;;;17.27;8.13;;;;;;;24.68;45.25;99473.38;5005609;28;20041;-79
2021/05/19 05:16:49;;;;;;;20.52;8.88;;;;;;;24.62;44.71;99463.28;5038452;28;20097;-80
2021/05/19 05:19:14;;;;;;;17.27;7.93;;;;;;;24.74;44.78;99467.06;5055012;28;20051;-79
2021/05/19 05:21:41;;;;;;;18.27;7.35;;;;;;;24.76;45.17;99470.44;5038522;28;20047;-79
2021/05/19 05:24:07;;;;;;;15.77;7.75;;;;;;;24.89;44.73;99467.66;5054804;28;20521;-79
2021/05/19 05:26:33;;;;;;;19.05;7.63;;;;;;;24.96;44.49;99471.22;5071826;28;20036;-79
2021/05/19 05:28:59;;;;;;;18.98;7.88;;;;;;;25.04;44.27;99477.53;5037775;28;20466;-79
2021/05/19 05:31:25;;;;;;;16.50;7.32;;;;;;;25.22;43.79;99474.16;5038437;28;20083;-81
2021/05/19 05:34:02;;;;;;;11.80;6.60;;;;;;;25.24;43.28;99472.03;5056753;28;20178;-80
2021/05/19 05:36:28;;;;;;;14.48;6.78;;;;;;;25.22;43.82;99479.63;5022183;28;20052;-79
2021/05/19 05:38:54;;;;;;;10.40;6.97;;;;;;;25.28;43.28;99485.09;5054881;28;20123;-78
2021/05/19 05:41:20;;;;;;;21.23;7.03;;;;;;;25.19;43.45;99481.72;5021842;28;20148;-78
2021/05/19 05:43:46;;;;;;;18.10;7.35;;;;;;;25.34;42.88;99481.47;5054254;28;20542;-79
2021/05/19 05:46:12;;;;;;;14.52;6.63;;;;;;;25.52;42.77;99490.91;5038375;28;20129;-79
2021/05/19 05:48:40;;;;;;;16.00;6.43;;;;;;;25.51;42.81;99486.50;5021762;28;20087;-79
2021/05/19 05:51:07;;;;;;;11.75;7.10;;;;;;;25.67;42.99;99489.56;5038535;28;20048;-79
2021/05/19 05:53:33;;;;;;;20.27;7.53;;;;;;;25.83;42.92;99492.91;5021766;28;20059;-79
2021/05/19 05:55:59;;;;;;;16.20;7.28;;;;;;;25.76;42.33;99489.31;5037796;28;20037;-79
2021/05/19 05:58:25;;;;;;;12.50;7.35;;;;;;;25.86;42.93;99492.47;5054903;28;20083;-79
2021/05/19 06:00:51;;;;;;;14.35;7.25;;;;;;;25.78;43.08;99485.34;5021660;28;20143;-81
2021/05/19 06:03:17;;;;;;;17.42;6.93;;;;;;;25.95;42.74;99485.66;5021884;28;20412;-79
2021/05/19 06:05:43;;;;;;;17.55;7.55;;;;;;;25.98;41.72;99489.88;5054687;28;20052;-79
2021/05/19 06:08:09;;;;;;;16.02;6.40;;;;;;;25.74;41.73;99484.09;5056295;28;20178;-81
2021/05/19 06:10:35;;;;;;;13.23;7.25;;;;;;;25.68;42.13;99495.88;5058248;28;20036;-81
2021/05/19 06:13:01;;;;;;;16.25;7.10;;;;;;;25.72;42.91;99490.81;5042068;28;20048;-79
2021/05/19 06:15:27;;;;;;;13.07;6.50;;;;;;;25.90;42.62;99494.56;5041681;28;20041;-79
2021/05/19 06:17:54;;;;;;;15.15;6.95;;;;;;;26.04;41.83;99484.38;5042028;28;20036;-81
2021/05/19 06:20:20;;;;;;;13.05;6.40;;;;;;;26.14;42.04;99505.81;5058320;28;20072;-81
2021/05/19 06:22:46;;;;;;;17.92;6.63;;;;;;;26.18;41.17;99501.59;5025543;28;20464;-82
2021/05/19 06:25:13;;;;;;;34.38;6.95;;;;;;;26.08;40.71;99509.44;5074358;28;20048;-80
2021/05/19 06:27:39;;;;;;;22.00;6.80;;;;;;;25.89;41.30;99509.31;5041836;28;20125;-80
2021/05/19 06:30:06;;;;;;;9.65;6.30;;;;;;;26.04;41.21;99516.41;5040972;28;20098;-79
2021/05/19 06:32:32;;;;;;;14.63;6.40;;;;;;;26.13;41.61;99515.06;5075060;28;20051;-80
2021/05/19 06:34:58;;;;;;;13.38;6.13;;;;;;;26.33;41.12;99504.84;5041977;28;20067;-79
2021/05/19 06:37:24;;;;;;;13.38;6.07;;;;;;;26.36;40.82;99506.28;5074329;28;20044;-79
2021/05/19 06:39:50;;;;;;;15.65;6.38;;;;;;;26.53;40.60;99523.91;5041146;28;20141;-80
2021/05/19 06:42:16;;;;;;;14.43;6.13;;;;;;;26.70;40.66;99526.94;5058064;28;20074;-81
2021/05/19 06:44:42;;;;;;;11.98;5.78;;;;;;;26.73;40.22;99531.97;5058034;28;20044;-80
2021/05/19 06:47:08;;;;;;;16.05;6.40;;;;;;;26.78;39.89;99532.16;5024581;28;20090;-79
2021/05/19 06:49:34;;;;;;;18.00;5.97;;;;;;;26.95;40.53;99526.13;5024681;28;20044;-80
2021/05/19 06:52:00;;;;;;;13.02;5.95;;;;;;;27.22;40.08;99535.78;5024556;28;20037;-80
2021/05/19 06:54:26;;;;;;;12.90;5.93;;;;;;;27.33;39.72;99536.97;5040944;28;20523;-81
2021/05/19 06:56:52;;;;;;;12.85;6.18;;;;;;;27.43;39.82;99525.47;5024749;28;20036;-79
2021/05/19 06:59:18;;;;;;;10.63;5.47;;;;;;;27.54;39.43;99544.75;5040961;28;20487;-80
2021/05/19 07:01:45;;;;;;;9.77;5.35;;;;;;;27.53;39.14;99525.75;5057256;28;20047;-79
2021/05/19 07:04:11;;;;;;;11.13;5.30;;;;;;;27.77;38.42;99533.13;5040655;28;20040;-80
2021/05/19 07:06:37;;;;;;;14.75;5.25;;;;;;;27.94;37.85;99535.22;5057397;28;20083;-80
2021/05/19 07:09:04;;;;;;;17.42;5.32;;;;;;;27.92;37.58;99542.88;5040463;28;20148;-79
2021/05/19 07:11:30;;;;;;;17.15;5.50;;;;;;;27.90;37.55;99520.28;5067675;28;20054;-83
2021/05/19 07:13:58;;;;;;;12.15;4.97;;;;;;;27.93;37.64;99536.28;5016439;28;20068;-80
2021/05/19 07:16:25;;;;;;;13.55;5.28;;;;;;;28.02;36.87;99540.38;5048878;28;20079;-81
2021/05/19 07:18:53;;;;;;;14.38;5.13;;;;;;;28.02;36.27;99532.16;5007887;28;20521;-81
2021/05/19 07:21:19;;;;;;;11.75;5.22;;;;;;;28.01;36.81;99524.97;5057384;28;20041;-81
2021/05/19 07:23:45;;;;;;;15.70;6.00;;;;;;;28.23;36.43;99536.31;5007807;28;20510;-83
2021/05/19 07:26:12;;;;;;;19.05;5.75;;;;;;;28.28;36.69;99540.06;5024004;28;20381;-79
2021/05/19 07:28:38;;;;;;;15.15;5.20;;;;;;;28.39;36.80;99548.59;5023857;28;20032;-79
2021/05/19 07:31:05;;;;;;;21.23;5.45;;;;;;;28.35;36.70;99544.59;5024185;28;20054;-79
2021/05/19 07:33:31;;;;;;;13.10;4.97;;;;;;;28.39;36.57;99535.66;5056941;28;20051;-79
2021/05/19 07:35:57;;;;;;;9.93;5.32;;;;;;;28.49;36.64;99546.94;5073465;28;20503;-80
2021/05/19 07:38:23;;;;;;;14.07;5.68;;;;;;;28.37;36.97;99547.97;5041192;28;20079;-77
2021/05/19 07:40:49;;;;;;;18.25;5.30;;;;;;;28.43;36.90;99549.78;5042477;28;20131;-79
2021/05/19 07:43:16;;;;;;;16.95;5.30;;;;;;;28.47;36.68;99537.25;5073338;28;20499;-81
2021/05/19 07:45:43;;;;;;;9.90;5.47;;;;;;;28.33;36.84;99531.09;5057157;28;20055;-80
2021/05/19 07:48:10;;;;;;;8.85;5.25;;;;;;;28.53;36.95;99536.31;5025578;28;20044;-80
2021/05/19 07:50:39;;;;;;;13.02;5.57;;;;;;;28.59;37.32;99546.38;5040240;28;20062;-81
2021/05/19 07:53:05;;;;;;;13.35;5.35;;;;;;;28.48;37.18;99547.19;5056822;28;20037;-79
2021/05/19 07:55:44;;;;;;;7.22;5.50;;;;;;;28.46;37.55;99546.59;5023185;28;20063;-82
2021/05/19 07:58:20;;;;;;;14.35;5.70;;;;;;;28.41;37.14;99538.22;5058276;28;20063;-80
2021/05/19 08:03:22;;;;;;;13.32;6.03;;;;;;;28.69;36.76;99552.13;5057855;28;20097;-80
2021/05/19 08:05:48;;;;;;;22.85;6.88;;;;;;;28.88;36.92;99543.78;5056353;28;20491;-80
2021/05/19 08:08:14;;;;;;;15.65;5.45;;;;;;;28.97;36.50;99567.16;5055682;28;20085;-79
2021/05/19 08:10:42;;;;;;;20.75;6.22;;;;;;;29.08;36.45;99562.78;5023289;28;20076;-79
2021/05/19 08:13:09;;;;;;;16.70;5.78;;;;;;;28.98;36.18;99571.59;5023367;28;20048;-81
2021/05/19 08:15:38;;;;;;;16.90;6.07;;;;;;;28.86;36.31;99560.56;5056032;28;20128;-79
2021/05/19 08:18:06;;;;;;;15.07;6.07;;;;;;;28.83;36.42;99562.94;5022852;28;20495;-78
2021/05/19 08:20:32;;;;;;;16.42;5.75;;;;;;;28.95;36.63;99567.38;5022862;28;20036;-79
2021/05/19 08:22:58;;;;;;;16.58;5.57;;;;;;;28.95;37.11;99561.03;5039469;28;20411;-80
2021/05/19 08:25:25;;;;;;;11.27;5.90;;;;;;;28.91;36.29;99568.09;5023019;28;20040;-79
2021/05/19 08:27:51;;;;;;;16.73;5.70;;;;;;;28.95;35.92;99561.03;5006500;28;20048;-79
2021/05/19 08:30:17;;;;;;;31.00;6.07;;;;;;;28.61;36.30;99559.91;5054960;28;20056;-80
2021/05/19 08:32:43;;;;;;;16.25;5.75;;;;;;;28.89;36.64;99556.50;5039133;28;20060;-80
2021/05/19 08:35:13;;;;;;;20.98;5.88;;;;;;;29.17;35.88;99564.91;5055477;28;20040;-81
2021/05/19 08:37:39;;;;;;;12.07;5.43;;;;;;;29.28;35.73;99553.06;5072329;28;20033;-79
2021/05/19 08:40:06;;;;;;;21.88;6.07;;;;;;;29.36;34.66;99556.53;5055331;28;20041;-79
2021/05/19 08:42:35;;;;;;;16.10;5.70;;;;;;;29.09;35.54;99551.50;5022994;28;20070;-80
2021/05/19 08:45:08;;;;;;;17.42;5.50;;;;;;;29.28;35.18;99564.09;5055899;28;20072;-79
2021/05/19 08:47:35;;;;;;;12.90;5.63;;;;;;;29.39;35.10;99559.66;5024336;28;20037;-80
2021/05/19 08:50:02;;;;;;;18.15;5.47;;;;;;;29.40;34.98;99569.59;5022157;28;20045;-81
2021/05/19 08:52:30;;;;;;;15.88;5.43;;;;;;;29.23;35.04;99558.47;5039399;28;20040;-80
2021/05/19 08:54:56;;;;;;;14.18;5.30;;;;;;;29.33;35.53;99559.78;5022398;28;20087;-82
2021/05/19 08:57:22;;;;;;;15.38;5.40;;;;;;;29.56;35.56;99573.50;5038574;28;20094;-81
2021/05/19 08:59:52;;;;;;;19.08;6.07;;;;;;;29.81;35.31;99573.28;5073195;28;20051;-81
2021/05/19 09:02:22;;;;;;;18.40;6.05;;;;;;;29.82;35.19;99572.19;5022122;28;20050;-80
2021/05/19 09:05:01;;;;;;;18.15;6.13;;;;;;;29.79;34.92;99582.84;5071963;28;20037;-79
2021/05/19 09:07:36;;;;;;;18.05;5.88;;;;;;;29.88;34.92;99586.94;5037288;28;20177;-80
2021/05/19 09:10:24;;;;;;;9.13;5.43;;;;;;;30.06;34.88;99578.50;5004007;28;20414;-80
2021/05/19 09:12:56;;;;;;;23.38;6.07;;;;;;;30.13;34.99;99592.97;5021280;28;20047;-79
2021/05/19 09:15:23;;;;;;;14.25;5.82;;;;;;;30.05;34.79;99587.81;5034931;28;20044;-78
2021/05/19 09:17:56;;;;;;;19.05;6.07;;;;;;;30.08;34.57;99609.41;5018499;28;20064;-80
2021/05/19 09:20:22;;;;;;;11.57;5.90;;;;;;;29.56;35.33;99597.47;5018343;28;20411;-80
2021/05/19 09:23:02;;;;;;;16.35;5.60;;;;;;;29.53;35.31;99596.06;5002579;28;20052;-80
2021/05/19 09:25:30;;;;;;;10.02;5.97;;;;;;;29.93;34.95;99603.56;5020642;28;20072;-81
2021/05/19 09:27:59;;;;;;;18.00;5.85;;;;;;;30.16;34.75;99616.44;5018550;28;20049;-80
2021/05/19 09:30:44;;;;;;;17.55;5.90;;;;;;;30.31;34.22;99607.69;5018340;28;20045;-82
2021/05/19 09:33:16;;;;;;;13.30;6.43;;;;;;;30.45;33.87;99603.56;5019148;28;20049;-79
2021/05/19 09:36:04;;;;;;;25.02;6.97;;;;;;;30.35;33.99;99612.44;5018629;28;20407;-78
2021/05/19 09:38:31;;;;;;;25.33;6.57;;;;;;;30.42;33.97;99615.06;5002043;28;20090;-79
2021/05/19 09:41:24;;;;;;;14.73;6.18;;;;;;;30.68;33.85;99625.50;5018569;28;20049;-79
2021/05/19 09:44:09;;;;;;;11.15;7.03;;;;;;;30.78;32.91;99611.09;5018413;28;20048;-80
2021/05/19 09:46:40;;;;;;;16.90;7.35;;;;;;;30.88;33.08;99618.72;4991377;28;20041;-77
2021/05/19 09:49:19;;;;;;;27.02;7.82;;;;;;;30.91;32.89;99619.06;5040005;28;20447;-79
2021/05/19 09:51:52;;;;;;;14.35;7.45;;;;;;;31.16;32.38;99624.19;5006508;28;20123;-81
2021/05/19 09:54:32;;;;;;;15.38;7.68;;;;;;;31.01;32.55;99621.16;5006957;28;20040;-79
2021/05/19 09:57:00;;;;;;;21.50;8.77;;;;;;;31.34;32.65;99620.38;5006459;28;20060;-80
2021/05/19 09:59:26;;;;;;;14.32;7.97;;;;;;;31.65;32.17;99623.59;5022447;28;20748;-80
2021/05/19 10:01:53;;;;;;;15.15;8.45;;;;;;;31.78;32.13;99612.16;5038901;28;20049;-79
2021/05/19 10:04:23;;;;;;;15.02;8.82;;;;;;;31.89;31.79;99624.22;5005601;28;20401;-79
2021/05/19 10:06:50;;;;;;;17.25;9.20;;;;;;;31.85;31.73;99623.03;5007034;28;20071;-81
2021/05/19 10:09:20;;;;;;;16.45;8.93;;;;;;;32.31;31.37;99623.66;5053015;28;20056;-80
2021/05/19 10:11:49;;;;;;;15.70;9.55;;;;;;;32.71;30.96;99625.22;5011417;28;20048;-81
2021/05/19 10:14:16;;;;;;;18.23;10.20;;;;;;;32.95;30.84;99626.63;5058794;28;20113;-81
2021/05/19 10:16:45;;;;;;;19.15;9.55;;;;;;;33.26;30.60;99626.88;5009515;28;20040;-82
2021/05/19 10:19:19;;;;;;;18.75;10.20;;;;;;;33.35;30.46;99628.06;5026602;28;20109;-80
2021/05/19 10:21:55;;;;;;;27.05;10.77;;;;;;;33.28;30.15;99630.22;5044187;28;20044;-80
2021/05/19 10:24:24;;;;;;;20.70;9.77;;;;;;;33.19;30.29;99626.28;5042878;28;20056;-79
2021/05/19 10:27:01;;;;;;;15.68;9.93;;;;;;;33.39;29.78;99626.41;5042050;28;20050;-79
2021/05/19 10:29:49;;;;;;;31.00;10.40;;;;;;;33.48;30.06;99624.88;5074305;28;20087;-79
2021/05/19 10:32:21;;;;;;;14.00;10.05;;;;;;;33.82;29.64;99635.63;5041340;28;20442;-80
2021/05/19 10:34:48;;;;;;;21.52;10.60;;;;;;;34.16;29.29;99638.03;5057765;28;20051;-80
2021/05/19 10:37:26;;;;;;;23.45;10.38;;;;;;;34.38;28.93;99633.13;5024520;28;20090;-80
2021/05/19 10:40:07;;;;;;;;;;;;;;;34.50;28.72;99630.97;5074622;28;20126;-81
2021/05/19 10:42:35;;;;;;;20.58;11.60;;;;;;;34.52;28.84;99639.00;5057693;28;20283;-80
2021/05/19 10:45:12;;;;;;;14.57;10.23;;;;;;;34.37;28.69;99636.16;5041209;28;20505;-80
2021/05/19 10:47:38;;;;;;;16.33;10.38;;;;;;;34.77;28.43;99641.03;5042441;28;20032;-80
2021/05/19 10:58:53;;;;;;;16.10;10.38;;;;;;;35.54;27.32;99643.88;5046531;28;20063;-78
2021/05/19 11:01:38;;;;;;;15.18;10.38;;;;;;;35.56;27.31;99647.22;5044268;28;20041;-80
2021/05/19 11:04:20;;;;;;;24.25;10.35;;;;;;;35.57;27.13;99651.66;5073901;28;20111;-80
2021/05/19 11:07:01;;;;;;;17.33;9.70;;;;;;;35.87;26.70;99632.13;5042836;28;20047;-79
2021/05/19 11:09:35;;;;;;;20.92;9.70;;;;;;;35.99;26.64;99638.22;5077431;28;20143;-79
2021/05/19 11:12:24;;;;;;;13.98;9.52;;;;;;;36.10;26.48;99646.56;5043524;28;20040;-79
2021/05/19 11:15:06;;;;;;;22.10;9.30;;;;;;;35.77;26.95;99632.19;5057066;28;20139;-79
2021/05/19 11:17:52;;;;;;;27.15;9.45;;;;;;;35.89;26.75;99638.25;5042562;28;20068;-80
2021/05/19 11:20:24;;;;;;;21.60;8.95;;;;;;;36.13;26.78;99638.47;5057355;28;20048;-80
2021/05/19 11:22:51;;;;;;;16.27;8.93;;;;;;;36.35;26.35;99642.84;5073726;28;20041;-81
2021/05/19 11:25:17;;;;;;;15.73;9.02;;;;;;;36.30;26.40;99635.34;5024106;28;20056;-78
2021/05/19 11:27:43;;;;;;;16.88;9.05;;;;;;;36.74;26.21;99629.00;5040292;28;20044;-79
2021/05/19 11:30:24;;;;;;;25.73;9.27;;;;;;;36.91;25.44;99640.59;5073096;28;20094;-81
2021/05/19 11:33:26;;;;;;;24.65;9.32;;;;;;;36.49;25.91;99627.22;5025825;28;20083;-80
2021/05/19 11:35:56;;;;;;;22.35;8.45;;;;;;;36.71;26.09;99649.06;5042661;28;20557;-80
2021/05/19 11:38:31;;;;;;;21.80;8.70;;;;;;;37.21;25.62;99635.94;5042269;28;20037;-79
2021/05/19 11:40:57;;;;;;;17.38;9.38;;;;;;;36.91;25.74;99634.19;5073521;28;20388;-80
2021/05/19 11:43:23;;;;;;;15.43;8.35;;;;;;;37.13;25.26;99626.25;5040143;28;20051;-79
2021/05/19 11:45:56;;;;;;;17.00;8.27;;;;;;;36.90;25.20;99638.94;5024345;28;20051;-82